sensor_id;sensor_type;location;lat;lon;timestamp;pressure;altitude;pressure_sealevel;temperature;humidity
62201;BME280;48197;42.732;27.192;2023-03-04T00:01:10;99908.72;;;4.98;100.00
62201;BME280;48197;42.732;27.192;2023-03-04T00:03:37;99902.09;;;4.99;100.00
62201;BME280;48197;42.732;27.192;2023-03-04T00:06:03;99900.22;;;5.03;100.00
62201;BME280;48197;42.732;27.192;2023-03-04T00:08:30;99903.81;;;5.07;100.00
62201;BME280;48197;42.732;27.192;2023-03-04T00:10:57;99898.84;;;5.13;100.00
62201;BME280;48197;42.732;27.192;2023-03-04T00:13:23;99896.88;;;5.13;100.00
62201;BME280;48197;42.732;27.192;2023-03-04T00:15:50;99896.44;;;5.11;100.00
62201;BME280;48197;42.732;27.192;2023-03-04T00:18:17;99886.66;;;5.10;100.00
62201;BME280;48197;42.732;27.192;2023-03-04T00:20:44;99892.84;;;5.07;100.00
62201;BME280;48197;42.732;27.192;2023-03-04T00:23:11;99903.03;;;5.06;100.00
62201;BME280;48197;42.732;27.192;2023-03-04T00:25:37;99893.28;;;5.09;100.00
62201;BME280;48197;42.732;27.192;2023-03-04T00:28:04;99898.84;;;5.13;100.00
62201;BME280;48197;42.732;27.192;2023-03-04T00:30:30;99899.97;;;5.11;100.00
62201;BME280;48197;42.732;27.192;2023-03-04T00:32:57;99880.31;;;5.06;100.00
62201;BME280;48197;42.732;27.192;2023-03-04T00:35:23;99886.06;;;5.01;100.00
62201;BME280;48197;42.732;27.192;2023-03-04T00:37:50;99884.44;;;4.96;100.00
62201;BME280;48197;42.732;27.192;2023-03-04T00:40:16;99886.03;;;4.97;100.00
62201;BME280;48197;42.732;27.192;2023-03-04T00:42:42;99883.28;;;4.97;100.00
62201;BME280;48197;42.732;27.192;2023-03-04T00:45:09;99877.38;;;4.95;100.00
62201;BME280;48197;42.732;27.192;2023-03-04T00:47:36;99868.34;;;4.95;100.00
62201;BME280;48197;42.732;27.192;2023-03-04T00:50:03;99857.69;;;4.89;100.00
62201;BME280;48197;42.732;27.192;2023-03-04T00:52:29;99863.88;;;4.86;100.00
62201;BME280;48197;42.732;27.192;2023-03-04T00:54:55;99861.53;;;4.85;100.00
62201;BME280;48197;42.732;27.192;2023-03-04T00:57:21;99862.75;;;4.87;100.00
62201;BME280;48197;42.732;27.192;2023-03-04T00:59:48;99850.28;;;4.90;100.00
62201;BME280;48197;42.732;27.192;2023-03-04T01:02:14;99847.97;;;4.92;100.00
62201;BME280;48197;42.732;27.192;2023-03-04T01:04:41;99838.88;;;4.88;100.00
62201;BME280;48197;42.732;27.192;2023-03-04T01:07:08;99838.69;;;4.77;100.00
62201;BME280;48197;42.732;27.192;2023-03-04T01:09:34;99844.69;;;4.63;100.00
62201;BME280;48197;42.732;27.192;2023-03-04T01:12:01;99842.81;;;4.48;100.00
62201;BME280;48197;42.732;27.192;2023-03-04T01:14:28;99836.63;;;4.32;100.00
62201;BME280;48197;42.732;27.192;2023-03-04T01:16:55;99827.66;;;4.15;100.00
62201;BME280;48197;42.732;27.192;2023-03-04T01:19:22;99834.78;;;4.00;100.00
62201;BME280;48197;42.732;27.192;2023-03-04T01:21:48;99837.19;;;3.86;100.00
62201;BME280;48197;42.732;27.192;2023-03-04T01:24:15;99837.66;;;3.72;100.00
62201;BME280;48197;42.732;27.192;2023-03-04T01:26:41;99833.38;;;3.55;100.00
62201;BME280;48197;42.732;27.192;2023-03-04T01:29:08;99836.38;;;3.34;100.00
62201;BME280;48197;42.732;27.192;2023-03-04T01:31:34;99834.78;;;3.17;100.00
62201;BME280;48197;42.732;27.192;2023-03-04T01:34:01;99836.34;;;3.02;100.00
62201;BME280;48197;42.732;27.192;2023-03-04T01:36:27;99833.69;;;2.90;100.00
62201;BME280;48197;42.732;27.192;2023-03-04T01:38:54;99839.66;;;2.80;100.00
62201;BME280;48197;42.732;27.192;2023-03-04T01:41:23;99843.88;;;2.77;100.00
62201;BME280;48197;42.732;27.192;2023-03-04T01:43:50;99843.09;;;2.77;100.00
62201;BME280;48197;42.732;27.192;2023-03-04T01:46:17;99841.25;;;2.81;100.00
62201;BME280;48197;42.732;27.192;2023-03-04T01:48:46;99842.59;;;2.87;100.00
62201;BME280;48197;42.732;27.192;2023-03-04T01:51:14;99834.50;;;2.91;100.00
62201;BME280;48197;42.732;27.192;2023-03-04T01:53:42;99836.97;;;2.96;100.00
62201;BME280;48197;42.732;27.192;2023-03-04T01:56:19;99835.28;;;3.07;100.00
62201;BME280;48197;42.732;27.192;2023-03-04T01:59:05;99825.44;;;3.18;100.00
62201;BME280;48197;42.732;27.192;2023-03-04T02:01:32;99832.75;;;3.30;100.00
62201;BME280;48197;42.732;27.192;2023-03-04T02:03:59;99842.81;;;3.42;100.00
62201;BME280;48197;42.732;27.192;2023-03-04T02:06:25;99847.75;;;3.52;100.00
62201;BME280;48197;42.732;27.192;2023-03-04T02:08:52;99851.53;;;3.63;100.00
62201;BME280;48197;42.732;27.192;2023-03-04T02:11:18;99850.59;;;3.75;100.00
62201;BME280;48197;42.732;27.192;2023-03-04T02:13:44;99858.38;;;3.89;100.00
62201;BME280;48197;42.732;27.192;2023-03-04T02:16:11;99860.19;;;4.01;100.00
62201;BME280;48197;42.732;27.192;2023-03-04T02:18:37;99859.53;;;4.07;100.00
62201;BME280;48197;42.732;27.192;2023-03-04T02:21:06;99865.53;;;4.13;100.00
62201;BME280;48197;42.732;27.192;2023-03-04T02:23:40;99865.69;;;4.20;100.00
62201;BME280;48197;42.732;27.192;2023-03-04T02:28:36;99874.19;;;4.35;100.00
62201;BME280;48197;42.732;27.192;2023-03-04T02:31:02;99874.28;;;4.38;100.00
62201;BME280;48197;42.732;27.192;2023-03-04T02:33:29;99865.00;;;4.43;100.00
62201;BME280;48197;42.732;27.192;2023-03-04T02:35:55;99865.06;;;4.46;100.00
62201;BME280;48197;42.732;27.192;2023-03-04T02:38:21;99866.66;;;4.47;100.00
62201;BME280;48197;42.732;27.192;2023-03-04T02:40:48;99874.81;;;4.44;100.00
62201;BME280;48197;42.732;27.192;2023-03-04T02:43:17;99873.13;;;4.39;100.00
62201;BME280;48197;42.732;27.192;2023-03-04T02:45:44;99870.38;;;4.39;100.00
62201;BME280;48197;42.732;27.192;2023-03-04T02:48:12;99870.31;;;4.36;100.00
62201;BME280;48197;42.732;27.192;2023-03-04T02:50:46;99870.69;;;4.34;100.00
62201;BME280;48197;42.732;27.192;2023-03-04T02:53:13;99872.69;;;4.37;100.00
62201;BME280;48197;42.732;27.192;2023-03-04T02:55:40;99869.25;;;4.40;100.00
62201;BME280;48197;42.732;27.192;2023-03-04T02:58:10;99875.94;;;4.43;100.00
62201;BME280;48197;42.732;27.192;2023-03-04T03:00:38;99872.13;;;4.47;100.00
62201;BME280;48197;42.732;27.192;2023-03-04T03:03:05;99873.78;;;4.52;100.00
62201;BME280;48197;42.732;27.192;2023-03-04T03:05:34;99875.06;;;4.58;100.00
62201;BME280;48197;42.732;27.192;2023-03-04T03:08:01;99881.00;;;4.60;100.00
62201;BME280;48197;42.732;27.192;2023-03-04T03:10:27;99874.81;;;4.63;100.00
62201;BME280;48197;42.732;27.192;2023-03-04T03:12:54;99884.31;;;4.69;100.00
62201;BME280;48197;42.732;27.192;2023-03-04T03:15:20;99882.84;;;4.76;100.00
62201;BME280;48197;42.732;27.192;2023-03-04T03:17:47;99877.88;;;4.81;100.00
62201;BME280;48197;42.732;27.192;2023-03-04T03:20:14;99879.91;;;4.84;100.00
62201;BME280;48197;42.732;27.192;2023-03-04T03:22:41;99885.44;;;4.88;100.00
62201;BME280;48197;42.732;27.192;2023-03-04T03:25:08;99877.66;;;4.90;100.00
62201;BME280;48197;42.732;27.192;2023-03-04T03:27:35;99878.88;;;4.93;100.00
62201;BME280;48197;42.732;27.192;2023-03-04T03:30:02;99883.88;;;4.87;100.00
62201;BME280;48197;42.732;27.192;2023-03-04T03:32:29;99880.97;;;4.80;100.00
62201;BME280;48197;42.732;27.192;2023-03-04T03:34:55;99868.03;;;4.77;100.00
62201;BME280;48197;42.732;27.192;2023-03-04T03:37:22;99870.25;;;4.71;100.00
62201;BME280;48197;42.732;27.192;2023-03-04T03:39:48;99869.34;;;4.63;100.00
62201;BME280;48197;42.732;27.192;2023-03-04T03:42:15;99863.00;;;4.59;100.00
62201;BME280;48197;42.732;27.192;2023-03-04T03:44:41;99866.88;;;4.58;100.00
62201;BME280;48197;42.732;27.192;2023-03-04T03:47:07;99861.47;;;4.62;100.00
62201;BME280;48197;42.732;27.192;2023-03-04T03:49:34;99869.38;;;4.67;100.00
62201;BME280;48197;42.732;27.192;2023-03-04T03:52:01;99863.56;;;4.68;100.00
62201;BME280;48197;42.732;27.192;2023-03-04T03:54:27;99860.81;;;4.68;100.00
62201;BME280;48197;42.732;27.192;2023-03-04T03:56:54;99859.25;;;4.67;100.00
62201;BME280;48197;42.732;27.192;2023-03-04T03:59:21;99846.69;;;4.66;100.00
62201;BME280;48197;42.732;27.192;2023-03-04T04:01:49;99854.13;;;4.66;100.00
62201;BME280;48197;42.732;27.192;2023-03-04T04:04:16;99857.66;;;4.66;100.00
62201;BME280;48197;42.732;27.192;2023-03-04T04:06:43;99859.25;;;4.67;100.00
62201;BME280;48197;42.732;27.192;2023-03-04T04:09:10;99851.38;;;4.66;100.00
62201;BME280;48197;42.732;27.192;2023-03-04T04:11:36;99860.75;;;4.65;100.00
62201;BME280;48197;42.732;27.192;2023-03-04T04:14:03;99861.56;;;4.65;100.00
62201;BME280;48197;42.732;27.192;2023-03-04T04:16:29;99873.38;;;4.69;100.00
62201;BME280;48197;42.732;27.192;2023-03-04T04:18:55;99870.69;;;4.73;100.00
62201;BME280;48197;42.732;27.192;2023-03-04T04:21:22;99881.38;;;4.78;100.00
62201;BME280;48197;42.732;27.192;2023-03-04T04:23:48;99886.88;;;4.82;100.00
62201;BME280;48197;42.732;27.192;2023-03-04T04:26:15;99888.13;;;4.84;100.00
62201;BME280;48197;42.732;27.192;2023-03-04T04:28:41;99881.91;;;4.87;100.00
62201;BME280;48197;42.732;27.192;2023-03-04T04:31:08;99889.34;;;4.87;100.00
62201;BME280;48197;42.732;27.192;2023-03-04T04:33:35;99888.53;;;4.86;100.00
62201;BME280;48197;42.732;27.192;2023-03-04T04:36:02;99895.63;;;4.87;100.00
62201;BME280;48197;42.732;27.192;2023-03-04T04:38:30;99898.34;;;4.87;100.00
62201;BME280;48197;42.732;27.192;2023-03-04T04:40:57;99891.66;;;4.85;100.00
62201;BME280;48197;42.732;27.192;2023-03-04T04:43:24;99890.44;;;4.82;100.00
62201;BME280;48197;42.732;27.192;2023-03-04T04:45:50;99896.34;;;4.84;100.00
62201;BME280;48197;42.732;27.192;2023-03-04T04:48:17;99902.22;;;4.86;100.00
62201;BME280;48197;42.732;27.192;2023-03-04T04:50:43;99890.56;;;4.89;100.00
62201;BME280;48197;42.732;27.192;2023-03-04T04:53:11;99898.06;;;4.93;100.00
62201;BME280;48197;42.732;27.192;2023-03-04T04:55:37;99898.91;;;4.97;100.00
62201;BME280;48197;42.732;27.192;2023-03-04T04:58:04;99895.81;;;4.98;100.00
62201;BME280;48197;42.732;27.192;2023-03-04T05:00:32;99901.31;;;4.98;100.00
62201;BME280;48197;42.732;27.192;2023-03-04T05:02:58;99898.91;;;4.97;100.00
62201;BME280;48197;42.732;27.192;2023-03-04T05:05:25;99895.75;;;4.95;100.00
62201;BME280;48197;42.732;27.192;2023-03-04T05:07:52;99888.63;;;4.90;100.00
62201;BME280;48197;42.732;27.192;2023-03-04T05:10:19;99892.44;;;4.85;100.00
62201;BME280;48197;42.732;27.192;2023-03-04T05:12:45;99890.88;;;4.84;100.00
62201;BME280;48197;42.732;27.192;2023-03-04T05:15:12;99895.97;;;4.86;100.00
62201;BME280;48197;42.732;27.192;2023-03-04T05:17:38;99901.97;;;4.91;100.00
62201;BME280;48197;42.732;27.192;2023-03-04T05:20:04;99895.03;;;4.98;100.00
62201;BME280;48197;42.732;27.192;2023-03-04T05:22:32;99901.44;;;5.05;100.00
62201;BME280;48197;42.732;27.192;2023-03-04T05:24:58;99904.31;;;5.13;100.00
62201;BME280;48197;42.732;27.192;2023-03-04T05:27:25;99901.19;;;5.14;100.00
62201;BME280;48197;42.732;27.192;2023-03-04T05:29:52;99896.09;;;5.13;100.00
62201;BME280;48197;42.732;27.192;2023-03-04T05:32:20;99895.34;;;5.16;100.00
62201;BME280;48197;42.732;27.192;2023-03-04T05:34:46;99895.06;;;5.21;100.00
62201;BME280;48197;42.732;27.192;2023-03-04T05:37:13;99897.84;;;5.24;100.00
62201;BME280;48197;42.732;27.192;2023-03-04T05:39:39;99905.06;;;5.32;100.00
62201;BME280;48197;42.732;27.192;2023-03-04T05:42:06;99895.13;;;5.47;100.00
62201;BME280;48197;42.732;27.192;2023-03-04T05:44:33;99896.91;;;5.59;100.00
62201;BME280;48197;42.732;27.192;2023-03-04T05:46:59;99891.59;;;5.70;100.00
62201;BME280;48197;42.732;27.192;2023-03-04T05:49:27;99905.06;;;5.79;100.00
62201;BME280;48197;42.732;27.192;2023-03-04T05:51:53;99903.59;;;5.85;100.00
62201;BME280;48197;42.732;27.192;2023-03-04T05:54:19;99911.06;;;5.88;100.00
62201;BME280;48197;42.732;27.192;2023-03-04T05:56:49;99913.75;;;5.84;100.00
62201;BME280;48197;42.732;27.192;2023-03-04T05:59:16;99913.72;;;5.81;100.00
62201;BME280;48197;42.732;27.192;2023-03-04T06:01:46;99903.00;;;5.72;100.00
62201;BME280;48197;42.732;27.192;2023-03-04T06:04:12;99917.13;;;5.74;100.00
62201;BME280;48197;42.732;27.192;2023-03-04T06:06:39;99915.97;;;5.75;100.00
62201;BME280;48197;42.732;27.192;2023-03-04T06:09:05;99909.28;;;5.72;100.00
62201;BME280;48197;42.732;27.192;2023-03-04T06:11:32;99906.97;;;5.75;100.00
62201;BME280;48197;42.732;27.192;2023-03-04T06:13:58;99905.00;;;5.75;100.00
62201;BME280;48197;42.732;27.192;2023-03-04T06:16:24;99907.75;;;5.75;100.00
62201;BME280;48197;42.732;27.192;2023-03-04T06:18:50;99902.31;;;5.79;100.00
62201;BME280;48197;42.732;27.192;2023-03-04T06:21:17;99897.25;;;5.81;100.00
62201;BME280;48197;42.732;27.192;2023-03-04T06:23:43;99904.44;;;5.89;100.00
62201;BME280;48197;42.732;27.192;2023-03-04T06:26:10;99898.72;;;5.98;100.00
62201;BME280;48197;42.732;27.192;2023-03-04T06:28:43;99898.56;;;6.13;100.00
62201;BME280;48197;42.732;27.192;2023-03-04T06:31:09;99901.28;;;6.40;100.00
62201;BME280;48197;42.732;27.192;2023-03-04T06:33:36;99911.00;;;6.64;100.00
62201;BME280;48197;42.732;27.192;2023-03-04T06:36:02;99910.38;;;6.78;100.00
62201;BME280;48197;42.732;27.192;2023-03-04T06:38:29;99906.97;;;6.88;100.00
62201;BME280;48197;42.732;27.192;2023-03-04T06:40:56;99914.09;;;6.93;100.00
62201;BME280;48197;42.732;27.192;2023-03-04T06:43:22;99909.00;;;6.91;100.00
62201;BME280;48197;42.732;27.192;2023-03-04T06:45:49;99911.03;;;6.98;100.00
62201;BME280;48197;42.732;27.192;2023-03-04T06:48:20;99910.25;;;7.01;100.00
62201;BME280;48197;42.732;27.192;2023-03-04T06:50:49;99908.66;;;6.97;100.00
62201;BME280;48197;42.732;27.192;2023-03-04T06:53:15;99916.84;;;6.93;100.00
62201;BME280;48197;42.732;27.192;2023-03-04T06:55:42;99912.59;;;6.99;100.00
62201;BME280;48197;42.732;27.192;2023-03-04T06:58:11;99918.25;;;7.13;100.00
62201;BME280;48197;42.732;27.192;2023-03-04T07:00:38;99914.75;;;7.16;100.00
62201;BME280;48197;42.732;27.192;2023-03-04T07:03:05;99915.88;;;7.12;100.00
62201;BME280;48197;42.732;27.192;2023-03-04T07:05:32;99924.19;;;7.15;100.00
62201;BME280;48197;42.732;27.192;2023-03-04T07:07:58;99919.97;;;7.29;100.00
62201;BME280;48197;42.732;27.192;2023-03-04T07:10:25;99922.06;;;7.39;100.00
62201;BME280;48197;42.732;27.192;2023-03-04T07:12:51;99916.19;;;7.44;100.00
62201;BME280;48197;42.732;27.192;2023-03-04T07:15:19;99919.53;;;7.64;100.00
62201;BME280;48197;42.732;27.192;2023-03-04T07:17:46;99908.59;;;7.71;100.00
62201;BME280;48197;42.732;27.192;2023-03-04T07:20:12;99916.03;;;7.67;100.00
62201;BME280;48197;42.732;27.192;2023-03-04T07:22:38;99911.72;;;7.70;100.00
62201;BME280;48197;42.732;27.192;2023-03-04T07:25:05;99908.19;;;7.69;100.00
62201;BME280;48197;42.732;27.192;2023-03-04T07:27:31;99904.19;;;7.63;100.00
62201;BME280;48197;42.732;27.192;2023-03-04T07:29:58;99899.56;;;7.71;100.00
62201;BME280;48197;42.732;27.192;2023-03-04T07:32:24;99901.16;;;7.75;100.00
62201;BME280;48197;42.732;27.192;2023-03-04T07:34:50;99887.56;;;7.97;100.00
62201;BME280;48197;42.732;27.192;2023-03-04T07:37:17;99876.28;;;8.16;100.00
62201;BME280;48197;42.732;27.192;2023-03-04T07:39:43;99874.03;;;8.40;100.00
62201;BME280;48197;42.732;27.192;2023-03-04T07:42:10;99870.69;;;8.75;100.00
62201;BME280;48197;42.732;27.192;2023-03-04T07:44:37;99878.22;;;8.89;100.00
62201;BME280;48197;42.732;27.192;2023-03-04T07:47:04;99877.44;;;8.96;100.00
62201;BME280;48197;42.732;27.192;2023-03-04T07:49:30;99882.94;;;8.96;100.00
62201;BME280;48197;42.732;27.192;2023-03-04T07:51:57;99885.75;;;9.03;100.00
62201;BME280;48197;42.732;27.192;2023-03-04T07:54:23;99877.50;;;9.14;100.00
62201;BME280;48197;42.732;27.192;2023-03-04T07:56:50;99883.03;;;9.32;100.00
62201;BME280;48197;42.732;27.192;2023-03-04T07:59:18;99885.41;;;9.62;100.00
62201;BME280;48197;42.732;27.192;2023-03-04T08:04:38;99895.28;;;10.10;100.00
62201;BME280;48197;42.732;27.192;2023-03-04T08:07:04;99902.34;;;10.11;100.00
62201;BME280;48197;42.732;27.192;2023-03-04T08:09:31;99890.91;;;10.09;100.00
62201;BME280;48197;42.732;27.192;2023-03-04T08:11:58;99893.69;;;10.09;100.00
62201;BME280;48197;42.732;27.192;2023-03-04T08:14:25;99901.97;;;9.98;100.00
62201;BME280;48197;42.732;27.192;2023-03-04T08:16:57;99898.00;;;10.02;100.00
62201;BME280;48197;42.732;27.192;2023-03-04T08:19:25;99902.34;;;10.11;100.00
62201;BME280;48197;42.732;27.192;2023-03-04T08:21:52;99907.09;;;10.10;100.00
62201;BME280;48197;42.732;27.192;2023-03-04T08:24:19;99909.06;;;10.10;100.00
62201;BME280;48197;42.732;27.192;2023-03-04T08:26:46;99906.66;;;10.44;100.00
62201;BME280;48197;42.732;27.192;2023-03-04T08:29:14;99905.06;;;10.43;100.00
62201;BME280;48197;42.732;27.192;2023-03-04T08:31:43;99903.88;;;10.55;100.00
62201;BME280;48197;42.732;27.192;2023-03-04T08:34:11;99905.78;;;10.76;100.00
62201;BME280;48197;42.732;27.192;2023-03-04T08:36:38;99899.47;;;10.65;100.00
62201;BME280;48197;42.732;27.192;2023-03-04T08:39:05;99907.75;;;10.72;100.00
62201;BME280;48197;42.732;27.192;2023-03-04T08:41:31;99901.84;;;10.70;100.00
62201;BME280;48197;42.732;27.192;2023-03-04T08:43:58;99900.72;;;10.53;100.00
62201;BME280;48197;42.732;27.192;2023-03-04T08:46:25;99908.97;;;10.63;100.00
62201;BME280;48197;42.732;27.192;2023-03-04T08:48:52;99909.31;;;10.73;100.00
62201;BME280;48197;42.732;27.192;2023-03-04T08:51:18;99906.16;;;10.71;100.00
62201;BME280;48197;42.732;27.192;2023-03-04T08:53:45;99905.81;;;10.65;100.00
62201;BME280;48197;42.732;27.192;2023-03-04T08:56:11;99890.81;;;10.62;100.00
62201;BME280;48197;42.732;27.192;2023-03-04T08:58:39;99891.19;;;10.65;100.00
62201;BME280;48197;42.732;27.192;2023-03-04T09:01:08;99885.25;;;10.73;100.00
62201;BME280;48197;42.732;27.192;2023-03-04T09:03:34;99880.16;;;10.57;100.00
62201;BME280;48197;42.732;27.192;2023-03-04T09:06:01;99887.25;;;10.62;100.00
62201;BME280;48197;42.732;27.192;2023-03-04T09:08:28;99873.03;;;10.67;100.00
62201;BME280;48197;42.732;27.192;2023-03-04T09:10:55;99872.53;;;10.87;100.00
62201;BME280;48197;42.732;27.192;2023-03-04T09:13:22;99872.34;;;11.19;100.00
62201;BME280;48197;42.732;27.192;2023-03-04T09:15:50;99871.13;;;11.23;100.00
62201;BME280;48197;42.732;27.192;2023-03-04T09:18:24;99865.16;;;11.29;100.00
62201;BME280;48197;42.732;27.192;2023-03-04T09:20:53;99862.84;;;11.23;100.00
62201;BME280;48197;42.732;27.192;2023-03-04T09:23:21;99858.31;;;10.88;100.00
62201;BME280;48197;42.732;27.192;2023-03-04T09:25:47;99844.94;;;10.76;100.00
62201;BME280;48197;42.732;27.192;2023-03-04T09:28:14;99848.94;;;10.68;100.00
62201;BME280;48197;42.732;27.192;2023-03-04T09:30:41;99846.44;;;10.95;100.00
62201;BME280;48197;42.732;27.192;2023-03-04T09:33:08;99833.50;;;11.37;100.00
62201;BME280;48197;42.732;27.192;2023-03-04T09:35:35;99839.75;;;11.48;100.00
62201;BME280;48197;42.732;27.192;2023-03-04T09:38:02;99837.50;;;11.29;100.00
62201;BME280;48197;42.732;27.192;2023-03-04T10:16:44;99784.44;;;12.82;100.00
62201;BME280;48197;42.732;27.192;2023-03-04T10:21:57;99775.13;;;12.96;100.00
62201;BME280;48197;42.732;27.192;2023-03-04T10:24:30;99769.78;;;12.54;100.00
62201;BME280;48197;42.732;27.192;2023-03-04T10:27:04;99770.78;;;12.06;100.00
62201;BME280;48197;42.732;27.192;2023-03-04T10:29:32;99769.59;;;11.65;100.00
62201;BME280;48197;42.732;27.192;2023-03-04T10:31:59;99757.38;;;11.59;100.00
62201;BME280;48197;42.732;27.192;2023-03-04T10:34:25;99755.56;;;12.21;100.00
62201;BME280;48197;42.732;27.192;2023-03-04T10:36:59;99755.59;;;12.18;100.00
62201;BME280;48197;42.732;27.192;2023-03-04T10:39:37;99741.75;;;11.80;100.00
62201;BME280;48197;42.732;27.192;2023-03-04T10:42:21;99738.75;;;11.63;100.00
62201;BME280;48197;42.732;27.192;2023-03-04T10:44:53;99740.56;;;11.81;100.00
62201;BME280;48197;42.732;27.192;2023-03-04T10:47:22;99733.41;;;11.83;100.00
62201;BME280;48197;42.732;27.192;2023-03-04T10:49:54;99727.94;;;11.76;100.00
62201;BME280;48197;42.732;27.192;2023-03-04T10:52:28;99727.47;;;11.89;100.00
62201;BME280;48197;42.732;27.192;2023-03-04T10:54:56;99718.50;;;12.08;100.00
62201;BME280;48197;42.732;27.192;2023-03-04T10:57:27;99710.06;;;12.19;100.00
62201;BME280;48197;42.732;27.192;2023-03-04T10:59:59;99707.53;;;12.32;100.00
62201;BME280;48197;42.732;27.192;2023-03-04T11:07:41;99703.19;;;12.58;100.00
62201;BME280;48197;42.732;27.192;2023-03-04T11:10:31;99694.38;;;12.63;100.00
62201;BME280;48197;42.732;27.192;2023-03-04T11:15:25;99688.59;;;12.81;100.00
62201;BME280;48197;42.732;27.192;2023-03-04T11:18:03;99691.41;;;12.77;100.00
62201;BME280;48197;42.732;27.192;2023-03-04T11:20:38;99684.97;;;12.84;100.00
62201;BME280;48197;42.732;27.192;2023-03-04T11:23:09;99677.78;;;12.86;100.00
62201;BME280;48197;42.732;27.192;2023-03-04T11:25:43;99679.59;;;12.97;100.00
62201;BME280;48197;42.732;27.192;2023-03-04T11:28:12;99670.81;;;12.78;100.00
62201;BME280;48197;42.732;27.192;2023-03-04T11:30:43;99676.25;;;12.58;100.00
62201;BME280;48197;42.732;27.192;2023-03-04T11:33:14;99672.81;;;12.51;100.00
62201;BME280;48197;42.732;27.192;2023-03-04T11:38:21;99673.56;;;12.24;100.00
62201;BME280;48197;42.732;27.192;2023-03-04T11:40:59;99666.38;;;12.30;100.00
62201;BME280;48197;42.732;27.192;2023-03-04T11:43:32;99670.28;;;12.60;100.00
62201;BME280;48197;42.732;27.192;2023-03-04T11:54:16;99676.88;;;12.42;100.00
62201;BME280;48197;42.732;27.192;2023-03-04T11:56:59;99677.34;;;12.37;100.00
62201;BME280;48197;42.732;27.192;2023-03-04T11:59:42;99669.50;;;12.59;100.00
62201;BME280;48197;42.732;27.192;2023-03-04T12:02:14;99664.91;;;13.00;100.00
62201;BME280;48197;42.732;27.192;2023-03-04T12:05:16;99672.19;;;13.14;100.00
62201;BME280;48197;42.732;27.192;2023-03-04T12:07:42;99662.47;;;13.25;100.00
62201;BME280;48197;42.732;27.192;2023-03-04T12:10:27;99659.88;;;13.78;100.00
62201;BME280;48197;42.732;27.192;2023-03-04T12:36:35;99643.06;;;13.02;93.59
62201;BME280;48197;42.732;27.192;2023-03-04T12:47:30;99631.31;;;12.43;99.23
62201;BME280;48197;42.732;27.192;2023-03-04T12:52:52;99621.66;;;12.55;100.00
62201;BME280;48197;42.732;27.192;2023-03-04T12:55:23;99618.56;;;12.50;99.53
62201;BME280;48197;42.732;27.192;2023-03-04T12:57:53;99616.88;;;12.56;99.57
62201;BME280;48197;42.732;27.192;2023-03-04T13:00:42;99614.34;;;12.65;100.00
62201;BME280;48197;42.732;27.192;2023-03-04T13:03:15;99611.28;;;12.59;99.21
62201;BME280;48197;42.732;27.192;2023-03-04T13:10:53;99601.16;;;13.40;98.12
62201;BME280;48197;42.732;27.192;2023-03-04T13:16:40;99601.59;;;14.31;94.14
62201;BME280;48197;42.732;27.192;2023-03-04T13:18:48;99603.16;;;14.32;93.50
62201;BME280;48197;42.732;27.192;2023-03-04T13:23:41;99589.13;;;14.03;95.15
62201;BME280;48197;42.732;27.192;2023-03-04T13:28:34;99580.78;;;14.03;98.54
62201;BME280;48197;42.732;27.192;2023-03-04T13:31:15;99583.41;;;14.10;97.73
62201;BME280;48197;42.732;27.192;2023-03-04T13:33:47;99585.78;;;13.55;95.85
62201;BME280;48197;42.732;27.192;2023-03-04T13:36:28;99589.25;;;13.39;98.98
62201;BME280;48197;42.732;27.192;2023-03-04T13:41:52;99574.91;;;13.01;100.00
62201;BME280;48197;42.732;27.192;2023-03-04T13:47:16;99572.56;;;12.76;100.00
62201;BME280;48197;42.732;27.192;2023-03-04T13:49:43;99569.63;;;12.63;100.00
62201;BME280;48197;42.732;27.192;2023-03-04T13:58:01;99552.13;;;11.92;100.00
62201;BME280;48197;42.732;27.192;2023-03-04T14:00:28;99548.41;;;12.29;100.00
62201;BME280;48197;42.732;27.192;2023-03-04T14:02:54;99548.53;;;12.69;100.00
62201;BME280;48197;42.732;27.192;2023-03-04T14:05:21;99546.75;;;12.59;100.00
62201;BME280;48197;42.732;27.192;2023-03-04T14:07:48;99545.28;;;12.51;100.00
62201;BME280;48197;42.732;27.192;2023-03-04T14:12:45;99544.31;;;13.04;100.00
62201;BME280;48197;42.732;27.192;2023-03-04T14:17:40;99547.75;;;14.58;96.35
62201;BME280;48197;42.732;27.192;2023-03-04T14:20:27;99534.22;;;15.18;90.96
62201;BME280;48197;42.732;27.192;2023-03-04T14:22:54;99528.84;;;15.53;90.38
62201;BME280;48197;42.732;27.192;2023-03-04T14:25:25;99525.84;;;15.60;87.05
62201;BME280;48197;42.732;27.192;2023-03-04T14:28:03;99529.88;;;15.17;86.38
62201;BME280;48197;42.732;27.192;2023-03-04T14:30:33;99534.88;;;14.47;85.70
62201;BME280;48197;42.732;27.192;2023-03-04T14:33:19;99535.13;;;14.37;86.34
62201;BME280;48197;42.732;27.192;2023-03-04T14:35:47;99532.50;;;13.97;88.20
62201;BME280;48197;42.732;27.192;2023-03-04T14:40:57;99518.09;;;13.49;92.85
62201;BME280;48197;42.732;27.192;2023-03-04T14:43:34;99515.38;;;13.05;94.99
62201;BME280;48197;42.732;27.192;2023-03-04T14:46:04;99520.06;;;12.65;97.99
62201;BME280;48197;42.732;27.192;2023-03-04T14:48:33;99515.03;;;12.36;100.00
62201;BME280;48197;42.732;27.192;2023-03-04T14:51:01;99514.38;;;12.29;99.91
62201;BME280;48197;42.732;27.192;2023-03-04T14:53:28;99519.19;;;12.24;100.00
62201;BME280;48197;42.732;27.192;2023-03-04T14:55:55;99516.28;;;12.08;100.00
62201;BME280;48197;42.732;27.192;2023-03-04T14:58:24;99513.00;;;11.86;100.00
62201;BME280;48197;42.732;27.192;2023-03-04T15:01:06;99515.63;;;11.70;100.00
62201;BME280;48197;42.732;27.192;2023-03-04T15:03:33;99509.09;;;11.56;100.00